Time,TemperatureF,DewpointF,PressureIn,WindDirection,WindDirectionDegrees,WindSpeedMPH,WindSpeedGustMPH,Humidity,HourlyPrecipIn,Conditions,Clouds,dailyrainin,SoftwareType,DateUTC
2013-05-20 00:01:00,61.5,60.9,30.12,South,180,0.0,0.0,98,0.00,,,0.00,pywws,2013-05-20 04:01:00,
2013-05-20 00:04:00,61.5,60.9,30.12,South,180,0.0,0.0,98,0.00,,,0.00,pywws,2013-05-20 04:04:00,
2013-05-20 00:08:00,61.7,61.1,30.12,East,90,0.0,0.0,98,0.00,,,0.00,pywws,2013-05-20 04:08:00,
2013-05-20 00:10:00,61.5,60.9,30.11,SW,225,0.0,0.7,98,0.00,,,0.00,pywws,2013-05-20 04:10:00,
2013-05-20 00:16:00,61.9,61.3,30.11,SW,225,0.7,1.6,98,0.00,,,0.00,pywws,2013-05-20 04:16:00,
2013-05-20 00:17:00,61.9,61.3,30.11,SW,225,1.6,2.2,98,0.00,,,0.00,pywws,2013-05-20 04:17:00,
2013-05-20 00:23:00,62.1,61.5,30.11,SW,225,0.0,0.0,98,0.00,,,0.00,pywws,2013-05-20 04:23:00,
2013-05-20 00:28:00,62.1,61.5,30.11,SW,225,0.0,1.6,98,0.00,,,0.00,pywws,2013-05-20 04:28:00,
2013-05-20 00:34:00,62.2,61.7,30.11,South,180,1.6,2.2,98,0.00,,,0.00,pywws,2013-05-20 04:34:00,
2013-05-20 00:40:00,62.2,61.7,30.11,South,180,1.6,2.2,98,0.00,,,0.00,pywws,2013-05-20 04:40:00,
2013-05-20 00:46:00,62.2,61.7,30.11,NW,315,0.0,0.7,98,0.00,,,0.00,pywws,2013-05-20 04:46:00,
2013-05-20 00:52:00,62.1,61.5,30.11,East,90,0.0,0.7,98,0.00,,,0.00,pywws,2013-05-20 04:52:00,
2013-05-20 00:58:00,62.2,61.7,30.12,SW,225,0.0,1.6,98,0.00,,,0.00,pywws,2013-05-20 04:58:00,
2013-05-20 01:04:00,62.1,61.5,30.11,SE,135,0.0,0.0,98,0.00,,,0.00,pywws,2013-05-20 05:04:00,
2013-05-20 01:10:00,61.9,61.3,30.11,North,0,0.0,0.0,98,0.00,,,0.00,pywws,2013-05-20 05:10:00,
2013-05-20 01:16:00,61.7,61.1,30.11,SE,135,0.0,0.7,98,0.00,,,0.00,pywws,2013-05-20 05:16:00,
2013-05-20 01:24:00,61.7,61.1,30.11,South,180,0.0,0.0,98,0.00,,,0.00,pywws,2013-05-20 05:24:00,
2013-05-20 01:31:00,61.7,61.1,30.11,South,180,0.0,0.7,98,0.00,,,0.00,pywws,2013-05-20 05:31:00,
2013-05-20 01:36:00,61.9,61.3,30.12,South,180,0.7,1.6,98,0.00,,,0.00,pywws,2013-05-20 05:36:00,
2013-05-20 01:42:00,62.1,61.5,30.12,East,90,0.0,0.7,98,0.00,,,0.00,pywws,2013-05-20 05:42:00,
2013-05-20 01:48:00,62.1,61.5,30.12,NE,45,0.7,1.6,98,0.00,,,0.00,pywws,2013-05-20 05:48:00,
2013-05-20 01:53:00,62.2,61.7,30.12,South,180,0.7,1.6,98,0.00,,,0.00,pywws,2013-05-20 05:53:00,
2013-05-20 01:59:00,62.2,61.7,30.11,ENE,68,1.6,3.8,98,0.00,,,0.00,pywws,2013-05-20 05:59:00,
2013-05-20 02:04:00,62.2,61.7,30.11,East,90,3.1,4.5,98,0.00,,,0.00,pywws,2013-05-20 06:04:00,
2013-05-20 02:10:00,62.6,61.7,30.11,North,0,0.0,0.7,97,0.00,,,0.00,pywws,2013-05-20 06:10:00,
2013-05-20 02:16:00,62.8,61.9,30.11,South,180,2.2,3.8,97,0.00,,,0.00,pywws,2013-05-20 06:16:00,
2013-05-20 02:21:00,62.8,61.9,30.11,North,0,0.7,1.6,97,0.00,,,0.00,pywws,2013-05-20 06:21:00,
2013-05-20 02:28:00,63.0,62.1,30.11,NNE,22,0.0,0.7,97,0.00,,,0.00,pywws,2013-05-20 06:28:00,
2013-05-20 02:33:00,62.6,61.7,30.11,NNE,22,0.0,0.7,97,0.00,,,0.00,pywws,2013-05-20 06:33:00,
2013-05-20 02:39:00,62.1,61.5,30.11,NNE,22,0.0,0.0,98,0.00,,,0.00,pywws,2013-05-20 06:39:00,
2013-05-20 02:45:00,61.9,61.3,30.11,NNE,22,0.0,0.7,98,0.00,,,0.00,pywws,2013-05-20 06:45:00,
2013-05-20 02:52:00,61.7,61.1,30.11,NNE,22,0.0,0.7,98,0.00,,,0.00,pywws,2013-05-20 06:52:00,
2013-05-20 02:58:00,61.5,60.9,30.11,NNE,22,0.0,0.0,98,0.00,,,0.00,pywws,2013-05-20 06:58:00,
2013-05-20 03:04:00,61.3,60.8,30.11,NNE,22,0.0,0.0,98,0.00,,,0.00,pywws,2013-05-20 07:04:00,
2013-05-20 03:09:00,61.3,60.8,30.11,NNE,22,0.0,0.7,98,0.00,,,0.00,pywws,2013-05-20 07:09:00,
2013-05-20 03:15:00,61.7,61.1,30.11,SE,135,0.7,1.6,98,0.00,,,0.00,pywws,2013-05-20 07:15:00,
2013-05-20 03:20:00,61.9,61.3,30.11,SE,135,2.2,3.1,98,0.00,,,0.00,pywws,2013-05-20 07:20:00,
2013-05-20 03:26:00,62.1,61.5,30.11,SW,225,0.0,2.2,98,0.00,,,0.00,pywws,2013-05-20 07:26:00,
2013-05-20 03:32:00,62.1,61.5,30.12,South,180,1.6,3.1,98,0.00,,,0.00,pywws,2013-05-20 07:32:00,
2013-05-20 03:37:00,62.1,61.5,30.12,South,180,1.6,3.1,98,0.00,,,0.00,pywws,2013-05-20 07:37:00,
2013-05-20 03:43:00,62.1,61.5,30.12,South,180,0.0,1.6,98,0.00,,,0.00,pywws,2013-05-20 07:43:00,
2013-05-20 03:48:00,62.1,61.5,30.11,South,180,0.7,1.6,98,0.00,,,0.00,pywws,2013-05-20 07:48:00,
2013-05-20 03:54:00,62.1,61.5,30.11,SSE,158,0.7,1.6,98,0.00,,,0.00,pywws,2013-05-20 07:54:00,
2013-05-20 04:00:00,62.1,61.5,30.12,SE,135,1.6,2.2,98,0.00,,,0.00,pywws,2013-05-20 08:00:00,
2013-05-20 04:05:00,62.1,61.5,30.11,SE,135,1.6,2.2,98,0.00,,,0.00,pywws,2013-05-20 08:05:00,
2013-05-20 04:11:00,62.1,61.5,30.12,SE,135,0.7,1.6,98,0.00,,,0.00,pywws,2013-05-20 08:11:00,
2013-05-20 04:16:00,62.1,61.5,30.12,NE,45,0.0,0.0,98,0.00,,,0.00,pywws,2013-05-20 08:16:00,
2013-05-20 04:22:00,62.1,61.5,30.11,East,90,0.7,2.2,98,0.00,,,0.00,pywws,2013-05-20 08:22:00,
2013-05-20 04:28:00,62.1,61.5,30.11,South,180,1.6,2.2,98,0.00,,,0.00,pywws,2013-05-20 08:28:00,
2013-05-20 04:33:00,62.1,61.5,30.11,East,90,0.7,2.2,98,0.00,,,0.00,pywws,2013-05-20 08:33:00,
2013-05-20 04:39:00,61.9,61.3,30.11,SE,135,0.0,0.0,98,0.00,,,0.00,pywws,2013-05-20 08:39:00,
2013-05-20 04:44:00,61.9,61.3,30.11,East,90,0.7,1.6,98,0.00,,,0.00,pywws,2013-05-20 08:44:00,
2013-05-20 04:50:00,61.9,61.3,30.11,East,90,0.0,0.7,98,0.00,,,0.00,pywws,2013-05-20 08:50:00,
2013-05-20 04:56:00,61.9,61.3,30.11,NE,45,0.7,1.6,98,0.00,,,0.00,pywws,2013-05-20 08:56:00,
2013-05-20 05:01:00,61.9,61.3,30.11,NE,45,0.7,3.1,98,0.00,,,0.00,pywws,2013-05-20 09:01:00,
2013-05-20 05:07:00,61.9,61.3,30.11,West,270,0.0,1.6,98,0.00,,,0.00,pywws,2013-05-20 09:07:00,
2013-05-20 05:12:00,61.7,61.1,30.11,East,90,0.0,0.0,98,0.00,,,0.00,pywws,2013-05-20 09:12:00,
2013-05-20 05:18:00,61.9,61.3,30.11,East,90,0.7,2.2,98,0.00,,,0.00,pywws,2013-05-20 09:18:00,
2013-05-20 05:24:00,61.9,61.3,30.11,NE,45,0.7,0.7,98,0.00,,,0.00,pywws,2013-05-20 09:24:00,
2013-05-20 05:29:00,61.9,61.3,30.11,ENE,68,1.6,2.2,98,0.00,,,0.00,pywws,2013-05-20 09:29:00,
2013-05-20 05:35:00,61.9,61.3,30.11,East,90,0.0,0.7,98,0.00,,,0.00,pywws,2013-05-20 09:35:00,
2013-05-20 05:40:00,61.9,61.3,30.11,SE,135,0.0,1.6,98,0.00,,,0.00,pywws,2013-05-20 09:40:00,
2013-05-20 05:46:00,61.9,61.3,30.12,South,180,0.0,0.7,98,0.00,,,0.00,pywws,2013-05-20 09:46:00,
2013-05-20 05:52:00,61.9,61.3,30.11,SW,225,0.7,1.6,98,0.00,,,0.00,pywws,2013-05-20 09:52:00,
2013-05-20 05:57:00,62.1,61.5,30.12,West,270,0.0,0.7,98,0.00,,,0.00,pywws,2013-05-20 09:57:00,
2013-05-20 06:04:00,62.1,61.5,30.12,West,270,0.0,0.7,98,0.00,,,0.00,pywws,2013-05-20 10:04:00,
2013-05-20 06:09:00,62.1,61.5,30.13,West,270,0.0,0.7,98,0.00,,,0.00,pywws,2013-05-20 10:09:00,
2013-05-20 06:15:00,62.1,61.5,30.13,West,270,0.0,0.7,98,0.00,,,0.00,pywws,2013-05-20 10:15:00,
2013-05-20 06:20:00,62.1,61.5,30.12,SE,135,0.7,1.6,98,0.00,,,0.00,pywws,2013-05-20 10:20:00,
2013-05-20 06:26:00,62.1,61.5,30.12,East,90,1.6,2.2,98,0.00,,,0.00,pywws,2013-05-20 10:26:00,
2013-05-20 06:32:00,62.1,61.5,30.13,South,180,0.0,1.6,98,0.00,,,0.00,pywws,2013-05-20 10:32:00,
2013-05-20 06:37:00,62.1,61.5,30.13,West,270,0.0,0.7,98,0.00,,,0.00,pywws,2013-05-20 10:37:00,
2013-05-20 06:43:00,62.1,61.5,30.13,West,270,0.0,0.0,98,0.00,,,0.00,pywws,2013-05-20 10:43:00,
2013-05-20 06:49:00,62.1,61.5,30.13,West,270,0.0,0.0,98,0.00,,,0.00,pywws,2013-05-20 10:49:00,
2013-05-20 06:56:00,61.9,61.3,30.14,West,270,0.0,0.0,98,0.00,,,0.00,pywws,2013-05-20 10:56:00,
2013-05-20 07:01:00,62.1,61.5,30.14,NE,45,0.0,0.0,98,0.00,,,0.00,pywws,2013-05-20 11:01:00,
2013-05-20 07:07:00,62.1,61.5,30.14,NE,45,0.0,0.0,98,0.00,,,0.00,pywws,2013-05-20 11:07:00,
2013-05-20 07:12:00,62.1,61.5,30.15,NE,45,0.0,0.0,98,0.00,,,0.00,pywws,2013-05-20 11:12:00,
2013-05-20 07:18:00,62.1,61.5,30.14,NE,45,0.0,0.0,98,0.00,,,0.00,pywws,2013-05-20 11:18:00,
2013-05-20 07:24:00,62.1,61.5,30.15,NE,45,0.0,0.0,98,0.00,,,0.00,pywws,2013-05-20 11:24:00,
2013-05-20 07:32:00,62.2,61.7,30.14,NE,45,0.0,0.0,98,0.00,,,0.00,pywws,2013-05-20 11:32:00,
2013-05-20 07:37:00,62.2,61.7,30.15,NE,45,0.0,0.7,98,0.00,,,0.00,pywws,2013-05-20 11:37:00,
2013-05-20 07:43:00,62.2,61.7,30.15,NE,45,0.0,0.0,98,0.00,,,0.00,pywws,2013-05-20 11:43:00,
2013-05-20 07:48:00,62.6,61.7,30.14,NE,45,0.0,0.0,97,0.00,,,0.00,pywws,2013-05-20 11:48:00,
2013-05-20 07:54:00,62.8,61.9,30.14,NE,45,0.0,0.0,97,0.00,,,0.00,pywws,2013-05-20 11:54:00,
2013-05-20 08:00:00,63.1,62.3,30.14,NE,45,0.0,0.0,97,0.00,,,0.00,pywws,2013-05-20 12:00:00,
2013-05-20 08:05:00,63.1,62.3,30.15,NE,45,0.0,0.0,97,0.00,,,0.00,pywws,2013-05-20 12:05:00,
2013-05-20 08:11:00,63.9,63.0,30.15,SW,225,0.0,0.7,97,0.00,,,0.00,pywws,2013-05-20 12:11:00,
2013-05-20 08:16:00,64.0,63.2,30.15,East,90,0.0,0.0,97,0.00,,,0.00,pywws,2013-05-20 12:16:00,
2013-05-20 08:22:00,64.2,63.3,30.15,South,180,0.7,2.2,97,0.00,,,0.00,pywws,2013-05-20 12:22:00,
2013-05-20 08:28:00,64.4,64.1,30.15,South,180,0.7,1.6,99,0.00,,,0.00,pywws,2013-05-20 12:28:00,
2013-05-20 08:33:00,64.4,64.1,30.15,SW,225,0.0,0.7,99,0.00,,,0.00,pywws,2013-05-20 12:33:00,
2013-05-20 08:39:00,64.6,64.3,30.15,NE,45,0.0,0.7,99,0.00,,,0.00,pywws,2013-05-20 12:39:00,
2013-05-20 08:44:00,64.9,64.7,30.15,West,270,0.0,1.6,99,0.00,,,0.00,pywws,2013-05-20 12:44:00,
2013-05-20 08:50:00,65.1,64.8,30.16,West,270,0.0,0.0,99,0.00,,,0.00,pywws,2013-05-20 12:50:00,
2013-05-20 08:56:00,65.8,65.3,30.16,NE,45,0.0,0.0,98,0.00,,,0.00,pywws,2013-05-20 12:56:00,
2013-05-20 09:01:00,66.4,65.5,30.16,NE,45,0.0,0.7,97,0.01,,,0.01,pywws,2013-05-20 13:01:00,
2013-05-20 09:10:00,66.7,65.0,30.16,NE,45,0.0,0.7,94,0.01,,,0.01,pywws,2013-05-20 13:10:00,
2013-05-20 09:16:00,67.1,65.3,30.16,NE,45,0.0,1.6,94,0.01,,,0.01,pywws,2013-05-20 13:16:00,
2013-05-20 09:22:00,66.9,64.5,30.16,SE,135,0.0,0.7,92,0.01,,,0.01,pywws,2013-05-20 13:22:00,
2013-05-20 09:28:00,67.1,64.4,30.16,NE,45,0.0,0.7,91,0.01,,,0.01,pywws,2013-05-20 13:28:00,
2013-05-20 09:33:00,67.6,64.9,30.17,North,0,0.0,0.0,91,0.01,,,0.01,pywws,2013-05-20 13:33:00,
2013-05-20 09:39:00,68.2,64.8,30.17,North,0,0.0,0.7,89,0.01,,,0.01,pywws,2013-05-20 13:39:00,
2013-05-20 09:44:00,68.4,64.3,30.17,West,270,0.7,1.6,87,0.01,,,0.01,pywws,2013-05-20 13:44:00,
2013-05-20 09:50:00,68.4,63.7,30.17,South,180,1.6,2.2,85,0.01,,,0.01,pywws,2013-05-20 13:50:00,
2013-05-20 09:56:00,68.0,63.3,30.17,SE,135,0.0,0.7,85,0.00,,,0.01,pywws,2013-05-20 13:56:00,
2013-05-20 10:02:00,68.4,63.3,30.17,WSW,248,2.2,3.1,84,0.00,,,0.01,pywws,2013-05-20 14:02:00,
2013-05-20 10:08:00,69.3,64.6,30.17,SW,225,1.6,2.2,85,0.00,,,0.01,pywws,2013-05-20 14:08:00,
2013-05-20 10:13:00,70.3,64.6,30.17,NE,45,0.0,0.0,82,0.00,,,0.01,pywws,2013-05-20 14:13:00,
2013-05-20 10:19:00,70.7,64.2,30.17,North,0,0.7,1.6,80,0.00,,,0.01,pywws,2013-05-20 14:19:00,
2013-05-20 10:25:00,71.6,64.4,30.16,North,0,0.0,0.7,78,0.00,,,0.01,pywws,2013-05-20 14:25:00,
2013-05-20 10:31:00,73.8,65.3,30.16,NE,45,0.0,0.7,75,0.00,,,0.01,pywws,2013-05-20 14:31:00,
2013-05-20 10:36:00,74.8,64.0,30.16,NE,45,1.6,3.8,69,0.00,,,0.01,pywws,2013-05-20 14:36:00,
2013-05-20 10:42:00,74.1,64.9,30.16,NE,45,0.0,0.7,73,0.00,,,0.01,pywws,2013-05-20 14:42:00,
2013-05-20 10:48:00,75.7,64.4,30.16,SW,225,1.6,3.8,68,0.00,,,0.01,pywws,2013-05-20 14:48:00,
2013-05-20 10:53:00,76.8,64.6,30.16,SW,225,1.6,3.1,66,0.00,,,0.01,pywws,2013-05-20 14:53:00,
2013-05-20 10:59:00,77.7,65.0,30.17,NE,45,1.6,2.2,65,0.00,,,0.01,pywws,2013-05-20 14:59:00,
2013-05-20 11:04:00,78.4,65.7,30.16,NW,315,0.0,0.7,65,0.00,,,0.01,pywws,2013-05-20 15:04:00,
2013-05-20 11:10:00,79.9,65.2,30.16,NW,315,1.6,2.2,61,0.00,,,0.01,pywws,2013-05-20 15:10:00,
2013-05-20 11:16:00,79.5,65.8,30.17,North,0,0.7,1.6,63,0.00,,,0.01,pywws,2013-05-20 15:16:00,
2013-05-20 11:21:00,80.2,66.5,30.17,South,180,0.0,0.7,63,0.00,,,0.01,pywws,2013-05-20 15:21:00,
2013-05-20 11:27:00,81.3,65.6,30.17,South,180,3.1,4.5,59,0.00,,,0.01,pywws,2013-05-20 15:27:00,
2013-05-20 11:32:00,82.4,66.1,30.16,NNW,338,0.7,1.6,58,0.00,,,0.01,pywws,2013-05-20 15:32:00,
2013-05-20 11:38:00,82.9,66.1,30.16,NE,45,0.7,1.6,57,0.00,,,0.01,pywws,2013-05-20 15:38:00,
2013-05-20 11:44:00,84.0,67.1,30.16,South,180,3.1,4.5,57,0.00,,,0.01,pywws,2013-05-20 15:44:00,
2013-05-20 11:49:00,83.8,66.4,30.16,NE,45,0.7,2.2,56,0.00,,,0.01,pywws,2013-05-20 15:49:00,
2013-05-20 11:55:00,85.3,66.2,30.16,East,90,1.6,2.2,53,0.00,,,0.01,pywws,2013-05-20 15:55:00,
2013-05-20 12:01:00,85.8,65.0,30.16,North,0,0.7,1.6,50,0.00,,,0.01,pywws,2013-05-20 16:01:00,
2013-05-20 12:07:00,84.9,64.7,30.16,North,0,0.0,1.6,51,0.00,,,0.01,pywws,2013-05-20 16:07:00,
2013-05-20 12:12:00,84.9,63.6,30.16,SW,225,2.2,3.1,49,0.00,,,0.01,pywws,2013-05-20 16:12:00,
2013-05-20 12:19:00,84.4,62.5,30.16,SW,225,3.8,5.4,48,0.00,,,0.01,pywws,2013-05-20 16:19:00,
2013-05-20 12:24:00,86.2,65.3,30.15,NE,45,0.7,1.6,50,0.00,,,0.01,pywws,2013-05-20 16:24:00,
2013-05-20 12:30:00,86.5,65.1,30.15,NE,45,1.6,2.2,49,0.00,,,0.01,pywws,2013-05-20 16:30:00,
2013-05-20 12:36:00,87.1,65.0,30.15,SW,225,1.6,3.1,48,0.00,,,0.01,pywws,2013-05-20 16:36:00,
2013-05-20 12:41:00,85.3,64.5,30.15,NE,45,1.6,2.2,50,0.00,,,0.01,pywws,2013-05-20 16:41:00,
2013-05-20 12:47:00,84.0,65.0,30.15,South,180,0.7,1.6,53,0.00,,,0.01,pywws,2013-05-20 16:47:00,
2013-05-20 12:52:00,85.1,64.9,30.14,NE,45,2.2,3.8,51,0.00,,,0.01,pywws,2013-05-20 16:52:00,
2013-05-20 12:58:00,85.6,66.5,30.14,SE,135,0.0,1.6,53,0.00,,,0.01,pywws,2013-05-20 16:58:00,
2013-05-20 13:04:00,88.0,65.2,30.14,SW,225,0.7,1.6,47,0.00,,,0.01,pywws,2013-05-20 17:04:00,
2013-05-20 13:09:00,86.7,64.6,30.14,NE,45,0.7,1.6,48,0.00,,,0.01,pywws,2013-05-20 17:09:00,
2013-05-20 13:15:00,87.3,65.7,30.14,East,90,0.7,1.6,49,0.00,,,0.01,pywws,2013-05-20 17:15:00,
2013-05-20 13:20:00,87.6,65.5,30.14,NE,45,0.7,1.6,48,0.00,,,0.01,pywws,2013-05-20 17:20:00,
2013-05-20 13:26:00,88.5,64.4,30.14,NE,45,1.6,2.2,45,0.00,,,0.01,pywws,2013-05-20 17:26:00,
2013-05-20 13:32:00,87.3,64.5,30.14,NE,45,1.6,2.2,47,0.00,,,0.01,pywws,2013-05-20 17:32:00,
2013-05-20 13:37:00,85.8,64.4,30.13,North,0,0.7,1.6,49,0.00,,,0.01,pywws,2013-05-20 17:37:00,
2013-05-20 13:43:00,84.7,63.4,30.13,North,0,0.7,2.2,49,0.00,,,0.01,pywws,2013-05-20 17:43:00,
2013-05-20 13:48:00,84.9,63.6,30.12,NE,45,1.6,2.2,49,0.00,,,0.01,pywws,2013-05-20 17:48:00,
2013-05-20 13:54:00,85.6,64.3,30.12,East,90,0.7,2.2,49,0.00,,,0.01,pywws,2013-05-20 17:54:00,
2013-05-20 14:00:00,87.3,64.5,30.12,NE,45,1.6,2.2,47,0.00,,,0.01,pywws,2013-05-20 18:00:00,
2013-05-20 14:05:00,86.5,63.9,30.12,NE,45,0.7,1.6,47,0.00,,,0.01,pywws,2013-05-20 18:05:00,
2013-05-20 14:11:00,86.9,64.2,30.12,NW,315,0.0,0.7,47,0.00,,,0.01,pywws,2013-05-20 18:11:00,
2013-05-20 14:18:00,86.9,63.0,30.12,NE,45,0.7,1.6,45,0.00,,,0.01,pywws,2013-05-20 18:18:00,
2013-05-20 14:24:00,85.5,63.5,30.12,NW,315,0.7,0.7,48,0.00,,,0.01,pywws,2013-05-20 18:24:00,
2013-05-20 14:29:00,86.7,64.0,30.12,North,0,1.6,3.1,47,0.00,,,0.01,pywws,2013-05-20 18:29:00,
2013-05-20 14:35:00,87.6,63.6,30.12,North,0,0.7,1.6,45,0.00,,,0.01,pywws,2013-05-20 18:35:00,
2013-05-20 14:40:00,86.9,63.0,30.12,NW,315,0.7,1.6,45,0.00,,,0.01,pywws,2013-05-20 18:40:00,
2013-05-20 14:46:00,85.5,62.9,30.12,NE,45,1.6,3.1,47,0.00,,,0.01,pywws,2013-05-20 18:46:00,
2013-05-20 14:52:00,86.4,62.5,30.12,NW,315,3.1,3.8,45,0.00,,,0.01,pywws,2013-05-20 18:52:00,
2013-05-20 14:57:00,87.3,63.3,30.11,NE,45,0.7,1.6,45,0.00,,,0.01,pywws,2013-05-20 18:57:00,
2013-05-20 15:03:00,89.2,63.8,30.11,North,0,0.0,0.7,43,0.00,,,0.01,pywws,2013-05-20 19:03:00,
2013-05-20 15:08:00,90.1,63.9,30.11,NE,45,1.6,2.2,42,0.00,,,0.01,pywws,2013-05-20 19:08:00,
2013-05-20 15:14:00,89.8,64.3,30.10,North,0,2.2,3.1,43,0.00,,,0.01,pywws,2013-05-20 19:14:00,
2013-05-20 15:20:00,89.1,63.6,30.10,North,0,0.7,1.6,43,0.00,,,0.01,pywws,2013-05-20 19:20:00,
2013-05-20 15:25:00,89.6,63.4,30.10,NE,45,3.1,4.5,42,0.00,,,0.01,pywws,2013-05-20 19:25:00,
2013-05-20 15:31:00,88.7,63.3,30.10,NE,45,0.7,1.6,43,0.00,,,0.01,pywws,2013-05-20 19:31:00,
2013-05-20 15:36:00,89.8,63.6,30.10,NW,315,0.7,1.6,42,0.00,,,0.01,pywws,2013-05-20 19:36:00,
2013-05-20 15:42:00,90.3,64.1,30.10,North,0,0.0,0.7,42,0.00,,,0.01,pywws,2013-05-20 19:42:00,
2013-05-20 15:48:00,92.1,66.4,30.10,NE,45,0.7,2.2,43,0.00,,,0.01,pywws,2013-05-20 19:48:00,
2013-05-20 15:53:00,92.8,66.3,30.09,NW,315,1.6,2.2,42,0.00,,,0.01,pywws,2013-05-20 19:53:00,
2013-05-20 15:59:00,93.0,65.8,30.09,East,90,0.0,1.6,41,0.00,,,0.01,pywws,2013-05-20 19:59:00,
2013-05-20 16:04:00,93.0,66.5,30.09,NE,45,0.7,1.6,42,0.00,,,0.01,pywws,2013-05-20 20:04:00,
2013-05-20 16:10:00,93.0,65.8,30.09,East,90,0.7,1.6,41,0.00,,,0.01,pywws,2013-05-20 20:10:00,
2013-05-20 16:16:00,91.6,65.2,30.09,North,0,0.7,1.6,42,0.00,,,0.01,pywws,2013-05-20 20:16:00,
2013-05-20 16:21:00,91.8,64.7,30.09,NE,45,0.7,1.6,41,0.00,,,0.01,pywws,2013-05-20 20:21:00,
2013-05-20 16:27:00,90.9,63.9,30.09,North,0,0.0,0.7,41,0.00,,,0.01,pywws,2013-05-20 20:27:00,
2013-05-20 16:32:00,88.5,62.5,30.09,NE,45,0.0,0.7,42,0.00,,,0.01,pywws,2013-05-20 20:32:00,
2013-05-20 16:38:00,86.9,62.3,30.09,ENE,68,0.7,2.2,44,0.00,,,0.01,pywws,2013-05-20 20:38:00,
2013-05-20 16:44:00,86.9,63.6,30.09,NE,45,0.0,0.7,46,0.00,,,0.01,pywws,2013-05-20 20:44:00,
2013-05-20 16:49:00,89.1,63.6,30.09,NE,45,0.7,1.6,43,0.00,,,0.01,pywws,2013-05-20 20:49:00,
2013-05-20 16:55:00,89.4,63.9,30.09,North,0,0.0,0.7,43,0.00,,,0.01,pywws,2013-05-20 20:55:00,
2013-05-20 17:00:00,92.1,65.0,30.09,NE,45,0.0,0.7,41,0.00,,,0.01,pywws,2013-05-20 21:00:00,
2013-05-20 17:06:00,93.7,65.7,30.09,NE,45,0.0,0.7,40,0.00,,,0.01,pywws,2013-05-20 21:06:00,
2013-05-20 17:12:00,94.1,65.3,30.09,East,90,1.6,3.1,39,0.00,,,0.01,pywws,2013-05-20 21:12:00,
2013-05-20 17:17:00,93.4,64.7,30.09,NE,45,0.0,0.7,39,0.00,,,0.01,pywws,2013-05-20 21:17:00,
2013-05-20 17:23:00,93.0,64.3,30.09,South,180,0.7,1.6,39,0.00,,,0.01,pywws,2013-05-20 21:23:00,
2013-05-20 17:28:00,96.1,64.8,30.09,West,270,0.7,2.2,36,0.00,,,0.01,pywws,2013-05-20 21:28:00,
2013-05-20 17:34:00,96.6,64.4,30.09,NE,45,2.2,3.1,35,0.00,,,0.01,pywws,2013-05-20 21:34:00,
2013-05-20 17:40:00,93.6,63.3,30.09,SE,135,1.6,2.2,37,0.00,,,0.01,pywws,2013-05-20 21:40:00,
2013-05-20 17:45:00,95.4,64.1,30.09,SW,225,0.0,1.6,36,0.00,,,0.01,pywws,2013-05-20 21:45:00,
2013-05-20 17:51:00,96.3,64.1,30.09,WSW,248,0.7,1.6,35,0.00,,,0.01,pywws,2013-05-20 21:51:00,
2013-05-20 17:56:00,91.9,66.2,30.09,East,90,3.1,3.8,43,0.00,,,0.01,pywws,2013-05-20 21:56:00,
2013-05-20 18:02:00,88.3,64.9,30.09,NE,45,3.1,5.4,46,0.00,,,0.01,pywws,2013-05-20 22:02:00,
2013-05-20 18:08:00,86.4,65.5,30.09,SE,135,3.1,5.4,50,0.00,,,0.01,pywws,2013-05-20 22:08:00,
2013-05-20 18:13:00,84.9,65.3,30.09,East,90,3.1,6.9,52,0.00,,,0.01,pywws,2013-05-20 22:13:00,
2013-05-20 18:19:00,83.5,65.6,30.09,NNE,22,2.2,3.8,55,0.00,,,0.01,pywws,2013-05-20 22:19:00,
2013-05-20 18:24:00,82.8,64.9,30.09,East,90,1.6,3.1,55,0.00,,,0.01,pywws,2013-05-20 22:24:00,
2013-05-20 18:30:00,82.4,65.1,30.09,South,180,0.7,1.6,56,0.00,,,0.01,pywws,2013-05-20 22:30:00,
2013-05-20 18:36:00,85.5,66.9,30.08,NE,45,1.6,2.2,54,0.00,,,0.01,pywws,2013-05-20 22:36:00,
2013-05-20 18:41:00,86.0,65.7,30.08,SE,135,3.1,6.0,51,0.00,,,0.01,pywws,2013-05-20 22:41:00,
2013-05-20 18:47:00,84.7,65.7,30.08,NE,45,3.1,4.5,53,0.00,,,0.01,pywws,2013-05-20 22:47:00,
2013-05-20 18:52:00,85.1,66.0,30.08,NE,45,2.2,4.5,53,0.00,,,0.01,pywws,2013-05-20 22:52:00,
2013-05-20 18:58:00,84.9,65.3,30.08,South,180,3.1,5.4,52,0.00,,,0.01,pywws,2013-05-20 22:58:00,
2013-05-20 19:04:00,84.4,64.8,30.08,NE,45,1.6,2.2,52,0.00,,,0.01,pywws,2013-05-20 23:04:00,
2013-05-20 19:09:00,81.9,64.6,30.08,ENE,68,3.8,5.4,56,0.00,,,0.01,pywws,2013-05-20 23:09:00,
2013-05-20 19:15:00,80.2,65.1,30.08,East,90,3.8,5.4,60,0.00,,,0.01,pywws,2013-05-20 23:15:00,
2013-05-20 19:20:00,79.0,64.8,30.08,NE,45,2.2,3.8,62,0.00,,,0.01,pywws,2013-05-20 23:20:00,
2013-05-20 19:26:00,78.1,64.9,30.08,East,90,4.5,6.9,64,0.00,,,0.01,pywws,2013-05-20 23:26:00,
2013-05-20 19:32:00,77.9,64.7,30.08,SW,225,0.7,2.2,64,0.00,,,0.01,pywws,2013-05-20 23:32:00,
2013-05-20 19:37:00,77.9,65.2,30.07,NE,45,2.2,3.8,65,0.00,,,0.01,pywws,2013-05-20 23:37:00,
2013-05-20 19:43:00,77.4,64.7,30.07,South,180,0.7,1.6,65,0.00,,,0.01,pywws,2013-05-20 23:43:00,
2013-05-20 19:48:00,77.2,64.9,30.07,South,180,0.7,1.6,66,0.00,,,0.01,pywws,2013-05-20 23:48:00,
2013-05-20 19:54:00,77.0,65.2,30.07,SE,135,2.2,3.1,67,0.00,,,0.01,pywws,2013-05-20 23:54:00,
2013-05-20 20:00:00,76.3,64.9,30.08,ESE,112,1.6,3.8,68,0.00,,,0.01,pywws,2013-05-21 00:00:00,
2013-05-20 20:05:00,76.1,65.2,30.08,East,90,2.2,3.1,69,0.00,,,0.01,pywws,2013-05-21 00:05:00,
2013-05-20 20:13:00,75.4,64.9,30.08,SE,135,0.0,0.7,70,0.00,,,0.01,pywws,2013-05-21 00:13:00,
2013-05-20 20:18:00,75.0,65.4,30.08,NE,45,1.6,2.2,72,0.00,,,0.01,pywws,2013-05-21 00:18:00,
2013-05-20 20:23:00,74.7,65.4,30.08,East,90,2.2,4.5,73,0.00,,,0.01,pywws,2013-05-21 00:23:00,
2013-05-20 20:28:00,74.1,64.9,30.08,East,90,0.7,1.6,73,0.00,,,0.01,pywws,2013-05-21 00:28:00,
2013-05-20 20:33:00,73.9,65.1,30.08,East,90,3.1,5.4,74,0.00,,,0.01,pywws,2013-05-21 00:33:00,
2013-05-20 20:38:00,73.4,65.0,30.08,NE,45,0.7,1.6,75,0.00,,,0.01,pywws,2013-05-21 00:38:00,
2013-05-20 20:43:00,72.9,64.1,30.08,East,90,2.2,3.8,74,0.00,,,0.01,pywws,2013-05-21 00:43:00,
2013-05-20 20:48:00,72.5,64.1,30.09,East,90,1.6,2.2,75,0.00,,,0.01,pywws,2013-05-21 00:48:00,
2013-05-20 20:53:00,72.3,63.9,30.09,East,90,0.7,2.2,75,0.00,,,0.01,pywws,2013-05-21 00:53:00,
2013-05-20 21:03:00,72.0,63.6,30.09,East,90,0.0,1.6,75,0.00,,,0.01,pywws,2013-05-21 01:03:00,
2013-05-20 21:08:00,71.6,63.2,30.09,SE,135,0.0,1.6,75,0.00,,,0.01,pywws,2013-05-21 01:08:00,
2013-05-20 21:14:00,71.2,63.6,30.09,SE,135,0.7,1.6,77,0.00,,,0.01,pywws,2013-05-21 01:14:00,
2013-05-20 21:20:00,71.1,63.5,30.09,East,90,0.7,3.8,77,0.00,,,0.01,pywws,2013-05-21 01:20:00,
2013-05-20 21:25:00,70.7,63.1,30.09,South,180,1.6,3.1,77,0.00,,,0.01,pywws,2013-05-21 01:25:00,
2013-05-20 21:31:00,70.5,63.0,30.09,East,90,0.7,1.6,77,0.00,,,0.01,pywws,2013-05-21 01:31:00,
2013-05-20 21:36:00,70.5,63.0,30.09,NE,45,1.6,2.2,77,0.00,,,0.01,pywws,2013-05-21 01:36:00,
2013-05-20 21:42:00,70.3,62.8,30.09,East,90,0.7,1.6,77,0.00,,,0.01,pywws,2013-05-21 01:42:00,
2013-05-20 21:48:00,70.2,62.2,30.10,South,180,0.7,1.6,76,0.00,,,0.01,pywws,2013-05-21 01:48:00,
2013-05-20 21:53:00,70.2,62.2,30.09,SE,135,0.7,1.6,76,0.00,,,0.01,pywws,2013-05-21 01:53:00,
2013-05-20 21:59:00,70.0,62.1,30.10,East,90,1.6,3.1,76,0.00,,,0.01,pywws,2013-05-21 01:59:00,
2013-05-20 22:04:00,69.8,61.9,30.10,East,90,0.7,1.6,76,0.00,,,0.01,pywws,2013-05-21 02:04:00,
2013-05-20 22:10:00,69.6,62.4,30.11,East,90,0.7,1.6,78,0.00,,,0.01,pywws,2013-05-21 02:10:00,
2013-05-20 22:16:00,69.3,62.5,30.10,SE,135,0.7,1.6,79,0.00,,,0.01,pywws,2013-05-21 02:16:00,
2013-05-20 22:21:00,69.1,62.6,30.11,WNW,292,1.6,2.2,80,0.00,,,0.01,pywws,2013-05-21 02:21:00,
2013-05-20 22:27:00,68.9,62.8,30.11,NE,45,0.7,1.6,81,0.00,,,0.01,pywws,2013-05-21 02:27:00,
2013-05-20 22:32:00,68.9,62.8,30.11,West,270,0.7,1.6,81,0.00,,,0.01,pywws,2013-05-21 02:32:00,
2013-05-20 22:38:00,68.9,62.8,30.11,NE,45,0.0,1.6,81,0.00,,,0.01,pywws,2013-05-21 02:38:00,
2013-05-20 22:44:00,68.5,63.2,30.11,West,270,0.7,2.2,83,0.00,,,0.01,pywws,2013-05-21 02:44:00,
2013-05-20 22:50:00,68.4,63.0,30.11,North,0,0.0,0.7,83,0.00,,,0.01,pywws,2013-05-21 02:50:00,
2013-05-20 22:56:00,68.0,62.6,30.11,West,270,0.0,1.6,83,0.00,,,0.01,pywws,2013-05-21 02:56:00,
2013-05-20 23:01:00,67.6,62.6,30.11,West,270,0.0,0.0,84,0.00,,,0.01,pywws,2013-05-21 03:01:00,
2013-05-20 23:07:00,67.5,62.8,30.11,East,90,1.6,3.1,85,0.00,,,0.01,pywws,2013-05-21 03:07:00,
2013-05-20 23:12:00,67.3,62.6,30.11,South,180,1.6,2.2,85,0.00,,,0.01,pywws,2013-05-21 03:12:00,
2013-05-20 23:18:00,67.1,62.8,30.11,ENE,68,1.6,3.1,86,0.00,,,0.01,pywws,2013-05-21 03:18:00,
2013-05-20 23:24:00,66.9,62.6,30.11,South,180,0.7,1.6,86,0.00,,,0.01,pywws,2013-05-21 03:24:00,
2013-05-20 23:29:00,66.7,62.7,30.11,NW,315,0.0,0.7,87,0.00,,,0.01,pywws,2013-05-21 03:29:00,
2013-05-20 23:35:00,66.4,62.4,30.11,SW,225,2.2,3.1,87,0.00,,,0.01,pywws,2013-05-21 03:35:00,
2013-05-20 23:40:00,66.4,62.7,30.10,SW,225,0.0,0.7,88,0.00,,,0.01,pywws,2013-05-21 03:40:00,
2013-05-20 23:46:00,66.4,63.0,30.10,South,180,1.6,2.2,89,0.00,,,0.01,pywws,2013-05-21 03:46:00,
2013-05-20 23:52:00,66.2,62.9,30.10,SE,135,1.6,3.8,89,0.00,,,0.01,pywws,2013-05-21 03:52:00,
2013-05-20 23:57:00,66.0,63.3,30.10,NW,315,0.0,0.7,91,0.00,,,0.01,pywws,2013-05-21 03:57:00,